createdAt,value
2023-02-16T00:01:25.322Z,67.43
2023-02-16T00:03:55.102Z,65.97
2023-02-16T00:06:23.474Z,69.10
2023-02-16T00:08:55.129Z,65.20
2023-02-16T00:11:45.016Z,70.63
2023-02-16T00:14:13.869Z,64.63
2023-02-16T00:16:42.433Z,67.03
2023-02-16T00:19:22.265Z,67.40
2023-02-16T00:21:51.714Z,66.50
2023-02-16T00:24:21.208Z,66.97
2023-02-16T00:26:49.880Z,67.47
2023-02-16T00:29:22.259Z,62.27
2023-02-16T00:31:50.836Z,62.47
2023-02-16T00:34:31.648Z,63.70
2023-02-16T00:37:01.069Z,67.17
2023-02-16T00:39:31.064Z,64.10
2023-02-16T00:42:01.455Z,67.90
2023-02-16T00:44:35.058Z,65.33
2023-02-16T00:47:05.219Z,63.80
2023-02-16T00:49:33.193Z,66.37
2023-02-16T00:52:01.369Z,67.50
2023-02-16T00:54:32.035Z,59.37
2023-02-16T00:57:00.348Z,60.30
2023-02-16T00:59:28.322Z,61.77
2023-02-16T01:01:57.463Z,55.33
2023-02-16T01:04:25.833Z,67.83
2023-02-16T01:07:11.650Z,65.50
2023-02-16T01:09:58.480Z,57.27
2023-02-16T01:12:26.501Z,61.13
2023-02-16T01:14:56.228Z,56.63
2023-02-16T01:17:25.081Z,61.90
2023-02-16T01:19:53.073Z,57.63
2023-02-16T01:22:21.054Z,63.77
2023-02-16T01:24:50.404Z,60.40
2023-02-16T01:27:18.360Z,60.53
2023-02-16T01:29:46.359Z,60.27
2023-02-16T01:32:14.435Z,58.20
2023-02-16T01:34:42.719Z,57.40
2023-02-16T01:37:15.947Z,59.43
2023-02-16T01:39:44.041Z,58.53
2023-02-16T01:42:29.869Z,54.23
2023-02-16T01:45:00.860Z,58.07
2023-02-16T01:47:39.569Z,62.73
2023-02-16T01:50:18.707Z,61.37
2023-02-16T01:52:52.907Z,66.13
2023-02-16T01:55:25.286Z,67.47
2023-02-16T01:58:00.658Z,65.07
2023-02-16T02:00:32.120Z,65.47
2023-02-16T02:03:16.544Z,63.33
2023-02-16T02:05:44.739Z,61.17
2023-02-16T02:08:20.835Z,67.17
2023-02-16T02:11:00.510Z,61.63
2023-02-16T02:13:35.497Z,65.30
2023-02-16T02:16:06.562Z,62.47
2023-02-16T02:18:34.966Z,63.80
2023-02-16T02:21:41.142Z,68.67
2023-02-16T02:24:34.126Z,64.60
2023-02-16T02:27:15.821Z,71.43
2023-02-16T02:30:08.746Z,61.80
2023-02-16T02:32:50.866Z,72.87
2023-02-16T02:35:28.181Z,68.77
2023-02-16T02:37:59.832Z,67.90
2023-02-16T02:40:37.029Z,64.37
2023-02-16T02:43:16.981Z,69.23
2023-02-16T02:45:48.878Z,62.57
2023-02-16T02:48:16.936Z,65.60
2023-02-16T02:51:11.768Z,67.97
2023-02-16T02:53:45.122Z,74.40
2023-02-16T02:56:32.838Z,70.93
2023-02-16T02:59:24.194Z,67.13
2023-02-16T03:01:57.626Z,70.50
2023-02-16T03:04:29.696Z,71.77
2023-02-16T03:06:59.931Z,67.03
2023-02-16T03:09:28.516Z,62.83
2023-02-16T03:12:17.022Z,63.77
2023-02-16T03:14:50.961Z,64.90
2023-02-16T03:17:40.832Z,66.07
2023-02-16T03:20:29.758Z,72.37
2023-02-16T03:23:16.620Z,67.63
2023-02-16T03:26:03.130Z,73.33
2023-02-16T03:28:50.850Z,69.30
2023-02-16T03:31:22.790Z,70.90
2023-02-16T03:33:54.732Z,68.17
2023-02-16T03:36:23.637Z,67.17
2023-02-16T03:38:52.358Z,66.53
2023-02-16T03:41:20.380Z,71.37
2023-02-16T03:43:48.338Z,68.67
2023-02-16T03:46:16.682Z,64.53
2023-02-16T03:48:46.142Z,72.27
2023-02-16T03:51:14.100Z,65.43
2023-02-16T03:53:42.070Z,60.03
2023-02-16T03:56:10.199Z,58.70
2023-02-16T03:58:38.263Z,57.70
2023-02-16T04:01:06.713Z,55.43
2023-02-16T04:03:34.900Z,56.77
2023-02-16T04:06:04.614Z,62.53
2023-02-16T04:08:32.591Z,52.77
2023-02-16T04:11:00.592Z,60.23
2023-02-16T04:13:27.543Z,55.13
2023-02-16T04:15:55.505Z,54.50
2023-02-16T04:18:23.446Z,55.70
2023-02-16T04:20:52.391Z,58.80
2023-02-16T04:23:21.712Z,53.73
2023-02-16T04:25:49.686Z,57.20
2023-02-16T04:28:17.638Z,56.20
2023-02-16T04:30:45.757Z,59.17
2023-02-16T04:33:13.790Z,61.93
2023-02-16T04:35:41.773Z,54.10
2023-02-16T04:38:09.750Z,54.10
2023-02-16T04:40:39.096Z,59.20
2023-02-16T04:43:07.079Z,64.87
2023-02-16T04:45:35.038Z,57.83
2023-02-16T04:48:03.709Z,61.70
2023-02-16T04:50:31.692Z,61.93
2023-02-16T04:52:59.655Z,61.70
2023-02-16T04:55:27.665Z,64.70
2023-02-16T04:57:56.988Z,64.63
2023-02-16T05:00:25.198Z,61.43
2023-02-16T05:02:53.284Z,63.17
2023-02-16T05:05:21.265Z,63.97
2023-02-16T05:07:49.215Z,62.40
2023-02-16T05:10:17.199Z,67.10
2023-02-16T05:13:02.728Z,63.87
2023-02-16T05:15:32.123Z,64.50
2023-02-16T05:18:00.111Z,70.07
2023-02-16T05:20:42.077Z,63.70
2023-02-16T05:23:10.041Z,66.90
2023-02-16T05:25:38.069Z,65.17
2023-02-16T05:28:06.199Z,60.93
2023-02-16T05:30:35.662Z,67.67
2023-02-16T05:33:03.617Z,62.80
2023-02-16T05:35:31.683Z,67.13
2023-02-16T05:37:59.670Z,68.20
2023-02-16T05:40:27.644Z,67.30
2023-02-16T05:42:56.070Z,64.43
2023-02-16T05:45:24.034Z,67.23
2023-02-16T05:47:53.431Z,66.57
2023-02-16T05:50:21.393Z,64.57
2023-02-16T05:52:49.424Z,68.83
2023-02-16T05:55:17.411Z,70.43
2023-02-16T05:57:45.393Z,70.70
2023-02-16T06:00:14.767Z,72.07
2023-02-16T06:02:42.812Z,67.27
2023-02-16T06:05:12.128Z,68.40
2023-02-16T06:07:40.205Z,70.50
2023-02-16T06:10:09.323Z,67.80
2023-02-16T06:12:37.345Z,71.47
2023-02-16T06:15:05.826Z,73.23
2023-02-16T06:17:33.769Z,71.10
2023-02-16T06:20:02.214Z,72.53
2023-02-16T06:22:31.545Z,76.03
2023-02-16T06:24:59.483Z,73.00
2023-02-16T06:27:28.797Z,76.10
2023-02-16T06:29:56.822Z,80.07
2023-02-16T06:32:25.002Z,80.27
2023-02-16T06:34:53.097Z,75.97
2023-02-16T06:37:22.266Z,74.87
2023-02-16T06:39:52.273Z,72.63
2023-02-16T06:42:20.674Z,74.70
2023-02-16T06:44:48.726Z,75.13
2023-02-16T06:47:17.097Z,69.57
2023-02-16T06:49:45.337Z,69.20
2023-02-16T06:52:13.792Z,69.13
2023-02-16T06:54:41.946Z,66.73
2023-02-16T06:57:11.595Z,72.60
2023-02-16T06:59:39.554Z,77.90
2023-02-16T07:02:07.812Z,70.67
2023-02-16T07:04:36.031Z,70.10
2023-02-16T07:07:04.560Z,69.13
2023-02-16T07:09:32.972Z,65.53
2023-02-16T07:12:00.905Z,69.63
2023-02-16T07:14:31.449Z,62.30
2023-02-16T07:17:04.191Z,84.07
2023-02-16T07:19:33.854Z,77.77
2023-02-16T07:22:03.181Z,67.57
2023-02-16T07:24:31.247Z,66.47
2023-02-16T07:26:59.524Z,68.43
2023-02-16T07:29:27.857Z,69.63
2023-02-16T07:31:57.914Z,69.33
2023-02-16T07:34:26.040Z,69.13
2023-02-16T07:36:54.007Z,72.47
2023-02-16T07:39:22.096Z,69.57
2023-02-16T07:41:50.117Z,67.17
2023-02-16T07:44:18.109Z,69.40
2023-02-16T07:46:46.134Z,66.93
2023-02-16T07:49:15.908Z,72.40
2023-02-16T07:51:45.006Z,59.73
2023-02-16T07:54:13.375Z,67.23
2023-02-16T07:56:41.429Z,65.60
2023-02-16T07:59:09.672Z,71.60
2023-02-16T08:01:40.197Z,61.60
2023-02-16T08:04:08.517Z,63.70
2023-02-16T08:06:38.146Z,65.60
2023-02-16T08:09:06.578Z,72.40
2023-02-16T08:11:35.255Z,61.33
2023-02-16T08:14:03.991Z,59.67
2023-02-16T08:16:32.400Z,58.57
2023-02-16T08:19:04.018Z,62.27
2023-02-16T08:21:34.486Z,60.73
2023-02-16T08:24:05.824Z,56.83
2023-02-16T08:26:37.781Z,62.00
2023-02-16T08:29:10.242Z,64.40
2023-02-16T08:31:39.527Z,60.20
2023-02-16T08:34:08.678Z,64.43
2023-02-16T08:36:38.664Z,56.33
2023-02-16T08:39:09.892Z,63.87
2023-02-16T08:41:38.958Z,60.47
2023-02-16T08:44:08.357Z,59.57
2023-02-16T08:46:39.285Z,60.53
2023-02-16T08:49:08.764Z,60.30
2023-02-16T08:51:41.594Z,61.00
2023-02-16T08:54:16.956Z,55.60
2023-02-16T08:56:47.267Z,58.37
2023-02-16T08:59:16.854Z,61.17
2023-02-16T09:01:45.401Z,59.60
2023-02-16T09:04:14.981Z,57.90
2023-02-16T09:06:45.687Z,57.23
2023-02-16T09:09:15.641Z,55.53
2023-02-16T09:11:43.793Z,53.80
2023-02-16T09:14:11.851Z,57.77
2023-02-16T09:16:45.683Z,61.57
2023-02-16T09:19:16.448Z,58.57
2023-02-16T09:21:45.116Z,55.83
2023-02-16T09:24:15.974Z,59.03
2023-02-16T09:26:44.764Z,59.13
2023-02-16T09:29:14.116Z,57.80
2023-02-16T09:31:44.489Z,55.47
2023-02-16T09:34:18.908Z,65.60
2023-02-16T09:36:48.131Z,63.93
2023-02-16T09:39:18.726Z,61.10
2023-02-16T09:42:01.681Z,58.10
2023-02-16T09:44:39.413Z,66.23
2023-02-16T09:47:25.451Z,61.67
2023-02-16T09:49:56.909Z,56.50
2023-02-16T09:52:32.041Z,62.77
2023-02-16T09:55:04.101Z,62.67
2023-02-16T09:57:42.791Z,56.30
2023-02-16T10:00:23.427Z,58.70
2023-02-16T10:02:56.178Z,60.17
2023-02-16T10:05:30.221Z,60.30
2023-02-16T10:08:05.793Z,60.80
2023-02-16T10:10:44.742Z,58.70
2023-02-16T10:13:23.739Z,59.13
2023-02-16T10:15:54.161Z,59.00
2023-02-16T10:18:29.436Z,59.10
2023-02-16T10:21:02.574Z,58.23
2023-02-16T10:23:43.232Z,65.97
2023-02-16T10:26:18.930Z,59.03
2023-02-16T10:28:49.401Z,65.07
2023-02-16T10:31:24.505Z,57.13
2023-02-16T10:34:04.454Z,62.60
2023-02-16T10:36:47.001Z,60.97
2023-02-16T10:39:26.248Z,56.60
2023-02-16T10:42:03.746Z,58.33
2023-02-16T10:44:40.280Z,59.23
2023-02-16T10:47:22.634Z,55.80
2023-02-16T10:49:52.093Z,55.70
2023-02-16T10:52:20.981Z,51.57
2023-02-16T10:54:49.011Z,55.70
2023-02-16T10:57:26.749Z,47.13
2023-02-16T10:59:55.855Z,52.57
2023-02-16T11:02:27.591Z,56.73
2023-02-16T11:04:56.939Z,52.40
2023-02-16T11:07:28.408Z,52.57
2023-02-16T11:09:59.020Z,48.23
2023-02-16T11:12:31.002Z,53.17
2023-02-16T11:15:03.461Z,54.93
2023-02-16T11:17:33.903Z,55.40
2023-02-16T11:20:05.616Z,52.90
2023-02-16T11:22:37.093Z,56.17
2023-02-16T11:25:27.264Z,52.57
2023-02-16T11:27:59.049Z,49.70
2023-02-16T11:30:34.854Z,53.83
2023-02-16T11:33:05.638Z,59.70
2023-02-16T11:35:43.319Z,51.63
2023-02-16T11:38:29.426Z,60.37
2023-02-16T11:40:58.201Z,52.43
2023-02-16T11:43:31.652Z,56.37
2023-02-16T11:46:02.581Z,58.67
2023-02-16T11:48:32.936Z,52.83
2023-02-16T11:51:03.087Z,56.57
2023-02-16T11:53:33.852Z,49.23
2023-02-16T11:56:15.335Z,52.43
2023-02-16T11:58:44.907Z,52.80
2023-02-16T12:01:23.470Z,57.43
2023-02-16T12:04:13.569Z,50.93
2023-02-16T12:06:52.825Z,51.77
2023-02-16T12:09:31.409Z,54.00
2023-02-16T12:12:09.801Z,53.87
2023-02-16T12:14:57.384Z,49.60
2023-02-16T12:17:35.025Z,54.17
2023-02-16T12:20:15.764Z,53.57
2023-02-16T12:22:49.293Z,49.10
2023-02-16T12:25:31.407Z,52.60
2023-02-16T12:28:13.439Z,49.53
2023-02-16T12:30:53.888Z,47.60
2023-02-16T12:33:40.862Z,49.20
2023-02-16T12:36:38.670Z,48.07
2023-02-16T12:39:18.816Z,49.77
2023-02-16T12:42:00.991Z,58.97
2023-02-16T12:44:36.939Z,54.63
2023-02-16T12:47:13.019Z,49.27
2023-02-16T12:49:50.284Z,49.47
2023-02-16T12:52:31.678Z,49.10
2023-02-16T12:55:09.028Z,55.23
2023-02-16T12:57:37.779Z,47.90
2023-02-16T13:00:17.819Z,52.10
2023-02-16T13:02:50.845Z,46.90
2023-02-16T13:05:23.413Z,49.63
2023-02-16T13:07:55.600Z,55.60
2023-02-16T13:10:28.036Z,55.70
2023-02-16T13:13:01.672Z,58.10
2023-02-16T13:15:34.787Z,49.80
2023-02-16T13:18:08.184Z,52.20
2023-02-16T13:20:49.758Z,48.33
2023-02-16T13:23:52.518Z,47.07
2023-02-16T13:26:50.133Z,45.63
2023-02-16T13:30:03.743Z,50.73
2023-02-16T13:32:58.868Z,56.13
2023-02-16T13:35:58.715Z,51.73
2023-02-16T13:38:54.736Z,51.00
2023-02-16T13:41:36.002Z,60.70
2023-02-16T13:44:08.230Z,57.20
2023-02-16T13:46:40.858Z,53.73
2023-02-16T13:49:28.452Z,47.67
2023-02-16T13:52:00.215Z,47.23
2023-02-16T13:54:31.768Z,45.03
2023-02-16T13:57:03.634Z,44.80
2023-02-16T14:00:05.124Z,42.10
2023-02-16T14:02:54.773Z,53.03
2023-02-16T14:05:39.386Z,51.40
2023-02-16T14:08:24.162Z,58.10
2023-02-16T14:11:04.696Z,56.43
2023-02-16T14:13:35.258Z,54.70
2023-02-16T14:16:09.577Z,49.00
2023-02-16T14:18:43.419Z,52.70
2023-02-16T14:21:20.181Z,52.03
2023-02-16T14:23:55.912Z,54.20
2023-02-16T14:26:24.195Z,54.37
2023-02-16T14:29:02.084Z,60.73
2023-02-16T14:31:32.209Z,61.43
2023-02-16T14:34:07.075Z,61.63
2023-02-16T14:36:35.993Z,56.47
2023-02-16T14:39:11.591Z,59.40
2023-02-16T14:41:41.350Z,57.07
2023-02-16T14:44:38.192Z,65.43
2023-02-16T14:47:16.866Z,58.53
2023-02-16T14:50:09.530Z,74.97
2023-02-16T14:53:09.135Z,65.17
2023-02-16T14:56:31.332Z,62.67
2023-02-16T14:59:03.000Z,67.53
2023-02-16T15:01:41.302Z,66.93
2023-02-16T15:04:11.426Z,61.70
2023-02-16T15:06:43.220Z,67.40
2023-02-16T15:09:17.726Z,72.93
2023-02-16T15:12:09.675Z,71.80
2023-02-16T15:14:42.902Z,75.27
2023-02-16T15:17:15.341Z,82.67
2023-02-16T15:19:43.947Z,77.30
2023-02-16T15:22:19.391Z,69.93
2023-02-16T15:24:57.401Z,67.30
2023-02-16T15:27:27.154Z,60.10
2023-02-16T15:30:12.002Z,64.70
2023-02-16T15:32:41.245Z,71.97
2023-02-16T15:35:14.596Z,78.60
2023-02-16T15:37:42.646Z,90.13
2023-02-16T15:40:25.494Z,84.53
2023-02-16T15:42:59.455Z,79.13
2023-02-16T15:45:30.045Z,82.80
2023-02-16T15:48:23.075Z,71.37
2023-02-16T15:50:53.560Z,71.30
2023-02-16T15:53:34.888Z,72.50
2023-02-16T15:56:07.022Z,77.80
2023-02-16T15:58:36.747Z,78.33
2023-02-16T16:01:05.309Z,80.13
2023-02-16T16:03:33.519Z,78.93
2023-02-16T16:06:06.070Z,77.33
2023-02-16T16:08:34.567Z,82.87
2023-02-16T16:11:03.139Z,74.57
2023-02-16T16:13:32.556Z,78.57
2023-02-16T16:16:04.711Z,75.83
2023-02-16T16:18:45.372Z,74.93
2023-02-16T16:21:17.943Z,68.40
2023-02-16T16:23:58.923Z,68.90
2023-02-16T16:26:28.794Z,66.37
2023-02-16T16:28:57.236Z,71.17
2023-02-16T16:31:43.595Z,71.60
2023-02-16T16:34:31.719Z,70.57
2023-02-16T16:37:02.560Z,71.57
2023-02-16T16:39:32.233Z,70.87
2023-02-16T16:42:28.572Z,72.37
2023-02-16T16:45:28.101Z,78.97
2023-02-16T16:47:58.242Z,72.07
2023-02-16T16:50:31.853Z,78.67
2023-02-16T16:52:59.836Z,72.07
2023-02-16T16:55:34.068Z,73.83
2023-02-16T16:58:04.795Z,80.00
2023-02-16T17:00:35.497Z,77.30
2023-02-16T17:03:07.024Z,81.17
2023-02-16T17:05:35.913Z,75.73
2023-02-16T17:08:03.915Z,73.77
2023-02-16T17:10:31.921Z,70.33
2023-02-16T17:13:01.195Z,72.43
2023-02-16T17:15:44.298Z,72.30
2023-02-16T17:18:17.182Z,78.03
2023-02-16T17:20:45.761Z,76.33
2023-02-16T17:23:15.897Z,85.57
2023-02-16T17:25:44.648Z,86.87
2023-02-16T17:28:13.969Z,90.57
2023-02-16T17:30:42.887Z,84.63
2023-02-16T17:33:11.271Z,92.93
2023-02-16T17:35:42.653Z,93.30
2023-02-16T17:38:12.822Z,92.17
2023-02-16T17:40:41.814Z,104.77
2023-02-16T17:43:14.633Z,92.00
2023-02-16T17:45:43.355Z,86.77
2023-02-16T17:48:17.006Z,90.37
2023-02-16T17:50:46.614Z,98.90
2023-02-16T17:53:15.443Z,91.13
2023-02-16T17:55:44.183Z,94.07
2023-02-16T17:58:12.714Z,88.30
2023-02-16T18:00:41.339Z,89.80
2023-02-16T18:03:10.431Z,95.83
2023-02-16T18:05:39.315Z,88.23
2023-02-16T18:08:08.985Z,94.40
2023-02-16T18:10:39.707Z,95.07
2023-02-16T18:13:09.533Z,91.87
2023-02-16T18:15:37.606Z,92.87
2023-02-16T18:18:06.138Z,92.20
2023-02-16T18:20:34.197Z,89.40
2023-02-16T18:23:02.238Z,90.87
2023-02-16T18:25:31.773Z,92.60
2023-02-16T18:27:59.960Z,96.10
2023-02-16T18:30:28.261Z,99.07
2023-02-16T18:32:56.257Z,98.80
2023-02-16T18:35:24.238Z,99.43
2023-02-16T18:37:52.191Z,98.73
2023-02-16T18:40:21.626Z,100.40
2023-02-16T18:42:50.978Z,90.97
2023-02-16T18:45:18.978Z,90.07
2023-02-16T18:47:46.934Z,97.37
2023-02-16T18:50:15.037Z,96.00
2023-02-16T18:52:44.922Z,91.20
2023-02-16T18:55:13.589Z,92.60
2023-02-16T18:57:42.289Z,93.20
2023-02-16T19:00:14.805Z,84.83
2023-02-16T19:02:43.310Z,94.00
2023-02-16T19:05:12.182Z,95.03
2023-02-16T19:07:40.235Z,96.80
2023-02-16T19:10:10.884Z,94.27
2023-02-16T19:12:39.015Z,98.50
2023-02-16T19:15:07.951Z,98.17
2023-02-16T19:17:38.607Z,98.80
2023-02-16T19:20:09.111Z,91.87
2023-02-16T19:22:38.109Z,94.13
2023-02-16T19:25:06.779Z,94.67
2023-02-16T19:27:35.009Z,95.20
2023-02-16T19:30:03.017Z,94.07
2023-02-16T19:32:31.245Z,95.53
2023-02-16T19:35:00.580Z,95.33
2023-02-16T19:37:28.508Z,87.67
2023-02-16T19:39:56.516Z,94.07
2023-02-16T19:42:24.502Z,85.57
2023-02-16T19:44:52.626Z,92.40
2023-02-16T19:47:20.673Z,84.10
2023-02-16T19:49:48.626Z,82.83
2023-02-16T19:52:18.118Z,87.00
2023-02-16T19:54:46.179Z,88.80
2023-02-16T19:57:14.235Z,84.70
2023-02-16T19:59:42.423Z,82.47
2023-02-16T20:02:13.019Z,90.83
2023-02-16T20:04:41.117Z,93.93
2023-02-16T20:07:09.852Z,80.23
2023-02-16T20:09:39.319Z,80.97
2023-02-16T20:12:07.916Z,88.13
2023-02-16T20:14:36.911Z,92.17
2023-02-16T20:17:04.954Z,89.53
2023-02-16T20:19:32.933Z,89.23
2023-02-16T20:22:00.891Z,90.13
2023-02-16T20:24:28.842Z,86.20
2023-02-16T20:26:58.143Z,91.60
2023-02-16T20:29:26.108Z,93.70
2023-02-16T20:31:56.959Z,94.43
2023-02-16T20:34:27.349Z,96.43
2023-02-16T20:36:55.820Z,92.90
2023-02-16T20:39:24.652Z,99.30
2023-02-16T20:41:52.602Z,92.83
2023-02-16T20:44:22.574Z,89.97
2023-02-16T20:46:51.182Z,92.13
2023-02-16T20:49:19.506Z,102.63
2023-02-16T20:51:47.455Z,85.63
2023-02-16T20:54:15.477Z,93.80
2023-02-16T20:56:43.571Z,94.43
2023-02-16T20:59:12.805Z,102.23
2023-02-16T21:01:46.400Z,96.93
2023-02-16T21:04:16.837Z,99.40
2023-02-16T21:06:44.949Z,95.57
2023-02-16T21:09:13.481Z,88.53
2023-02-16T21:11:42.028Z,89.97
2023-02-16T21:14:12.129Z,97.67
2023-02-16T21:16:41.869Z,90.17
2023-02-16T21:19:21.196Z,98.70
2023-02-16T21:21:50.988Z,91.43
2023-02-16T21:24:19.040Z,89.10
2023-02-16T21:26:47.084Z,94.00
2023-02-16T21:29:15.100Z,92.07
2023-02-16T21:31:44.927Z,90.63
2023-02-16T21:34:13.032Z,101.10
2023-02-16T21:36:41.060Z,91.70
2023-02-16T21:39:09.136Z,93.13
2023-02-16T21:41:36.324Z,96.13
2023-02-16T21:44:08.619Z,96.03
2023-02-16T21:46:38.760Z,97.70
2023-02-16T21:49:10.020Z,95.70
2023-02-16T21:51:39.683Z,92.10
2023-02-16T21:54:08.615Z,92.57
2023-02-16T21:56:39.141Z,94.50
2023-02-16T21:59:10.015Z,89.87
2023-02-16T22:01:40.593Z,90.97
2023-02-16T22:04:12.701Z,91.97
2023-02-16T22:06:42.357Z,98.60
2023-02-16T22:09:12.818Z,93.33
2023-02-16T22:11:41.107Z,96.97
2023-02-16T22:14:09.283Z,93.27
2023-02-16T22:16:38.573Z,91.67
2023-02-16T22:19:09.678Z,95.00
2023-02-16T22:21:39.763Z,92.97
2023-02-16T22:24:08.992Z,86.53
2023-02-16T22:26:37.258Z,92.63
2023-02-16T22:29:06.877Z,95.20
2023-02-16T22:31:35.274Z,89.90
2023-02-16T22:34:05.517Z,93.10
2023-02-16T22:36:35.511Z,93.07
2023-02-16T22:39:03.485Z,85.97
2023-02-16T22:41:31.705Z,87.40
2023-02-16T22:44:00.222Z,94.43
2023-02-16T22:46:29.441Z,92.27
2023-02-16T22:48:59.295Z,92.83
2023-02-16T22:51:29.374Z,91.93
2023-02-16T22:53:59.512Z,90.17
2023-02-16T22:56:27.977Z,83.40
2023-02-16T22:58:57.603Z,96.80
2023-02-16T23:01:27.614Z,85.70
2023-02-16T23:03:58.294Z,91.90
2023-02-16T23:06:28.681Z,89.77
2023-02-16T23:09:00.662Z,89.53
2023-02-16T23:11:29.304Z,85.53
2023-02-16T23:13:57.321Z,90.53
2023-02-16T23:16:27.467Z,94.77
2023-02-16T23:18:56.872Z,96.13
2023-02-16T23:21:27.444Z,86.83
2023-02-16T23:23:55.887Z,86.80
2023-02-16T23:26:28.053Z,87.23
2023-02-16T23:28:58.863Z,85.97
2023-02-16T23:31:27.497Z,91.77
2023-02-16T23:33:58.790Z,90.47
2023-02-16T23:36:28.071Z,85.63
2023-02-16T23:38:56.088Z,94.03
2023-02-16T23:41:25.402Z,90.13
2023-02-16T23:43:53.408Z,86.83
2023-02-16T23:46:21.412Z,91.17
2023-02-16T23:48:49.407Z,79.13
2023-02-16T23:51:17.684Z,82.40
2023-02-16T23:53:45.746Z,82.03
2023-02-16T23:56:17.755Z,88.77
2023-02-16T23:58:47.656Z,75.37
